N658KP KAMA-KSXU
Flight info
| Callsign | N658KP |
|---|---|
| Flight time | 0h 51m |
| Altitude | 10000 |
| Route | SIDER V402 TCC V12 WASBI |
| Aircraft | C310/L-SDFGR/S |
Departure
| Time | 2026-04-25 23:57 |
|---|---|
| Airport | Rick Husband Amarillo International Airport (KAMA) |
Arrival
| Time | 2026-04-26 00:48 |
|---|---|
| Airport | Santa Rosa Route 66 Airport (KSXU) |
| Time | Latitude | Longitude | Altitude | Speed | Heading |
|---|---|---|---|---|---|
| 2026-04-25 23:45 | 35.22234 | -101.70238 | 3609 ft | 0 kts | 309° |
| 2026-04-25 23:49 | 35.22236 | -101.70241 | 3609 ft | 1 kts | 305° |
| 2026-04-25 23:49 | 35.22244 | -101.70261 | 3609 ft | 3 kts | 295° |
| 2026-04-25 23:50 | 35.22255 | -101.70297 | 3609 ft | 4 kts | 282° |
| 2026-04-25 23:50 | 35.22266 | -101.70338 | 3609 ft | 5 kts | 295° |
| 2026-04-25 23:50 | 35.22274 | -101.70383 | 3609 ft | 5 kts | 272° |
| 2026-04-25 23:50 | 35.22284 | -101.70428 | 3609 ft | 5 kts | 311° |
| 2026-04-25 23:51 | 35.22295 | -101.70479 | 3609 ft | 7 kts | 249° |
| 2026-04-25 23:51 | 35.22263 | -101.70534 | 3609 ft | 8 kts | 224° |
| 2026-04-25 23:51 | 35.22219 | -101.70591 | 3609 ft | 10 kts | 226° |
| 2026-04-25 23:51 | 35.22166 | -101.70657 | 3609 ft | 11 kts | 225° |
| 2026-04-25 23:52 | 35.22106 | -101.70732 | 3609 ft | 12 kts | 226° |
| 2026-04-25 23:52 | 35.22041 | -101.70815 | 3609 ft | 14 kts | 226° |
| 2026-04-25 23:52 | 35.21972 | -101.70904 | 3609 ft | 14 kts | 226° |
| 2026-04-25 23:52 | 35.21899 | -101.70996 | 3609 ft | 15 kts | 225° |
| 2026-04-25 23:53 | 35.21837 | -101.71096 | 3609 ft | 15 kts | 289° |
| 2026-04-25 23:53 | 35.21903 | -101.71192 | 3609 ft | 14 kts | 320° |
| 2026-04-25 23:53 | 35.21968 | -101.71273 | 3609 ft | 3 kts | 318° |
| 2026-04-25 23:53 | 35.21968 | -101.71274 | 3609 ft | 0 kts | 318° |
| 2026-04-25 23:55 | 35.21973 | -101.71279 | 3609 ft | 4 kts | 313° |
| 2026-04-25 23:56 | 35.22032 | -101.71328 | 3609 ft | 15 kts | 3° |
| 2026-04-25 23:56 | 35.22197 | -101.71143 | 3609 ft | 62 kts | 43° |
| 2026-04-25 23:56 | 35.22681 | -101.70579 | 3726 ft | 110 kts | 45° |
| 2026-04-25 23:56 | 35.23356 | -101.69847 | 4119 ft | 128 kts | 34° |
| 2026-04-25 23:57 | 35.24215 | -101.69728 | 4648 ft | 124 kts | 333° |
| 2026-04-25 23:57 | 35.24742 | -101.70515 | 5150 ft | 122 kts | 281° |
| 2026-04-25 23:57 | 35.24507 | -101.71519 | 5651 ft | 128 kts | 233° |
| 2026-04-25 23:57 | 35.23899 | -101.72332 | 6135 ft | 130 kts | 230° |
| 2026-04-25 23:58 | 35.23278 | -101.73128 | 6620 ft | 130 kts | 229° |
| 2026-04-25 23:58 | 35.22662 | -101.73917 | 7105 ft | 130 kts | 229° |
| 2026-04-25 23:58 | 35.22047 | -101.74706 | 7592 ft | 130 kts | 229° |
| 2026-04-25 23:58 | 35.21496 | -101.75584 | 8088 ft | 128 kts | 239° |
| 2026-04-25 23:59 | 35.21092 | -101.76528 | 8574 ft | 127 kts | 246° |
| 2026-04-25 23:59 | 35.20768 | -101.77531 | 9067 ft | 126 kts | 250° |
| 2026-04-25 23:59 | 35.20503 | -101.78530 | 9548 ft | 126 kts | 252° |
| 2026-04-25 23:59 | 35.20254 | -101.79592 | 9929 ft | 135 kts | 253° |
| 2026-04-26 00:00 | 35.19992 | -101.80801 | 10000 ft | 157 kts | 254° |
| 2026-04-26 00:00 | 35.19712 | -101.82182 | 10005 ft | 171 kts | 255° |
| 2026-04-26 00:00 | 35.19431 | -101.83617 | 10002 ft | 178 kts | 255° |
| 2026-04-26 00:00 | 35.19165 | -101.85126 | 10002 ft | 182 kts | 257° |
| 2026-04-26 00:01 | 35.18891 | -101.86638 | 10002 ft | 185 kts | 257° |
| 2026-04-26 00:01 | 35.18596 | -101.88193 | 10001 ft | 187 kts | 257° |
| 2026-04-26 00:01 | 35.18305 | -101.89724 | 10000 ft | 188 kts | 257° |
| 2026-04-26 00:01 | 35.18004 | -101.91296 | 10000 ft | 188 kts | 257° |
| 2026-04-26 00:02 | 35.17707 | -101.92844 | 10000 ft | 189 kts | 257° |
| 2026-04-26 00:02 | 35.17396 | -101.94463 | 10000 ft | 189 kts | 257° |
| 2026-04-26 00:02 | 35.17081 | -101.96095 | 9999 ft | 189 kts | 257° |
| 2026-04-26 00:02 | 35.16749 | -101.97807 | 9999 ft | 189 kts | 257° |
| 2026-04-26 00:03 | 35.16411 | -101.99551 | 9999 ft | 189 kts | 257° |
| 2026-04-26 00:03 | 35.16074 | -102.01294 | 9999 ft | 189 kts | 257° |
| 2026-04-26 00:03 | 35.15726 | -102.03095 | 9999 ft | 189 kts | 257° |
| 2026-04-26 00:03 | 35.15361 | -102.04978 | 9999 ft | 189 kts | 257° |
| 2026-04-26 00:04 | 35.14998 | -102.06851 | 9999 ft | 189 kts | 257° |
| 2026-04-26 00:04 | 35.14627 | -102.08766 | 9991 ft | 190 kts | 257° |
| 2026-04-26 00:04 | 35.14297 | -102.10414 | 9990 ft | 190 kts | 255° |
| 2026-04-26 00:04 | 35.13908 | -102.12071 | 9990 ft | 190 kts | 254° |
| 2026-04-26 00:05 | 35.13505 | -102.13760 | 9989 ft | 190 kts | 254° |
| 2026-04-26 00:05 | 35.13114 | -102.15437 | 9988 ft | 190 kts | 255° |
| 2026-04-26 00:05 | 35.12712 | -102.17157 | 9990 ft | 189 kts | 255° |
| 2026-04-26 00:05 | 35.12316 | -102.18859 | 9989 ft | 189 kts | 255° |
| 2026-04-26 00:06 | 35.11915 | -102.20592 | 9989 ft | 189 kts | 255° |
| 2026-04-26 00:06 | 35.11514 | -102.22325 | 9989 ft | 189 kts | 255° |
| 2026-04-26 00:06 | 35.11118 | -102.24030 | 9989 ft | 189 kts | 255° |
| 2026-04-26 00:06 | 35.10736 | -102.25671 | 9991 ft | 189 kts | 255° |
| 2026-04-26 00:07 | 35.10342 | -102.27379 | 9989 ft | 188 kts | 255° |
| 2026-04-26 00:07 | 35.09949 | -102.29117 | 9988 ft | 187 kts | 255° |
| 2026-04-26 00:07 | 35.09561 | -102.30857 | 9988 ft | 187 kts | 255° |
| 2026-04-26 00:07 | 35.09171 | -102.32588 | 9988 ft | 187 kts | 255° |
| 2026-04-26 00:08 | 35.08775 | -102.34324 | 9988 ft | 187 kts | 255° |
| 2026-04-26 00:08 | 35.08380 | -102.36041 | 9988 ft | 186 kts | 255° |
| 2026-04-26 00:08 | 35.07982 | -102.37764 | 9988 ft | 186 kts | 255° |
| 2026-04-26 00:08 | 35.07589 | -102.39458 | 9988 ft | 186 kts | 255° |
| 2026-04-26 00:09 | 35.07191 | -102.41164 | 9988 ft | 186 kts | 255° |
| 2026-04-26 00:09 | 35.06791 | -102.42879 | 9988 ft | 186 kts | 255° |
| 2026-04-26 00:09 | 35.06395 | -102.44578 | 9988 ft | 186 kts | 255° |
| 2026-04-26 00:09 | 35.06001 | -102.46260 | 9988 ft | 186 kts | 255° |
| 2026-04-26 00:10 | 35.05604 | -102.47956 | 9988 ft | 186 kts | 255° |
| 2026-04-26 00:10 | 35.05199 | -102.49686 | 9988 ft | 186 kts | 255° |
| 2026-04-26 00:10 | 35.04766 | -102.51533 | 9988 ft | 186 kts | 255° |
| 2026-04-26 00:10 | 35.04346 | -102.53324 | 9988 ft | 186 kts | 255° |
| 2026-04-26 00:11 | 35.03924 | -102.55120 | 9988 ft | 186 kts | 255° |
| 2026-04-26 00:11 | 35.03512 | -102.56873 | 9987 ft | 186 kts | 255° |
| 2026-04-26 00:11 | 35.03102 | -102.58621 | 9987 ft | 186 kts | 255° |
| 2026-04-26 00:11 | 35.02697 | -102.60350 | 9987 ft | 186 kts | 255° |
| 2026-04-26 00:12 | 35.02255 | -102.62082 | 9984 ft | 186 kts | 256° |
| 2026-04-26 00:12 | 35.02398 | -102.63925 | 9986 ft | 187 kts | 279° |
| 2026-04-26 00:12 | 35.02706 | -102.65626 | 9992 ft | 187 kts | 280° |
| 2026-04-26 00:12 | 35.02988 | -102.67175 | 9991 ft | 188 kts | 280° |
| 2026-04-26 00:13 | 35.03263 | -102.68731 | 9991 ft | 188 kts | 280° |
| 2026-04-26 00:13 | 35.03537 | -102.70309 | 9991 ft | 188 kts | 279° |
| 2026-04-26 00:13 | 35.03852 | -102.72141 | 9991 ft | 188 kts | 279° |
| 2026-04-26 00:13 | 35.04180 | -102.74053 | 9991 ft | 188 kts | 279° |
| 2026-04-26 00:14 | 35.04497 | -102.75928 | 9991 ft | 188 kts | 279° |
| 2026-04-26 00:14 | 35.04798 | -102.77759 | 9991 ft | 188 kts | 279° |
| 2026-04-26 00:14 | 35.05093 | -102.79547 | 9991 ft | 188 kts | 279° |
| 2026-04-26 00:14 | 35.05393 | -102.81355 | 9991 ft | 188 kts | 279° |
| 2026-04-26 00:15 | 35.05693 | -102.83160 | 9991 ft | 188 kts | 279° |
| 2026-04-26 00:15 | 35.05987 | -102.84936 | 9991 ft | 188 kts | 279° |
| 2026-04-26 00:15 | 35.06282 | -102.86706 | 9991 ft | 188 kts | 279° |
| 2026-04-26 00:15 | 35.06576 | -102.88473 | 9990 ft | 188 kts | 279° |
| 2026-04-26 00:16 | 35.06868 | -102.90226 | 9990 ft | 188 kts | 279° |
| 2026-04-26 00:16 | 35.07154 | -102.91948 | 9990 ft | 188 kts | 279° |
| 2026-04-26 00:16 | 35.07427 | -102.93592 | 9990 ft | 188 kts | 279° |
| 2026-04-26 00:16 | 35.07700 | -102.95234 | 9990 ft | 188 kts | 279° |
| 2026-04-26 00:17 | 35.07962 | -102.96819 | 9962 ft | 189 kts | 279° |
| 2026-04-26 00:17 | 35.08223 | -102.98390 | 9955 ft | 189 kts | 279° |
| 2026-04-26 00:17 | 35.08482 | -102.99950 | 9953 ft | 188 kts | 279° |
| 2026-04-26 00:17 | 35.08741 | -103.01518 | 9953 ft | 188 kts | 279° |
| 2026-04-26 00:18 | 35.09000 | -103.03081 | 9953 ft | 188 kts | 279° |
| 2026-04-26 00:18 | 35.09258 | -103.04645 | 9953 ft | 188 kts | 279° |
| 2026-04-26 00:18 | 35.09518 | -103.06218 | 9953 ft | 188 kts | 279° |
| 2026-04-26 00:18 | 35.09776 | -103.07780 | 9953 ft | 188 kts | 279° |
| 2026-04-26 00:19 | 35.10034 | -103.09345 | 9953 ft | 188 kts | 279° |
| 2026-04-26 00:19 | 35.10305 | -103.10899 | 9951 ft | 188 kts | 278° |
| 2026-04-26 00:19 | 35.10563 | -103.12453 | 9954 ft | 188 kts | 279° |
| 2026-04-26 00:19 | 35.10824 | -103.14032 | 9953 ft | 188 kts | 279° |
| 2026-04-26 00:20 | 35.11079 | -103.15585 | 9953 ft | 188 kts | 279° |
| 2026-04-26 00:20 | 35.11337 | -103.17150 | 9953 ft | 188 kts | 279° |
| 2026-04-26 00:20 | 35.11592 | -103.18707 | 9953 ft | 188 kts | 279° |
| 2026-04-26 00:20 | 35.11850 | -103.20281 | 9953 ft | 188 kts | 279° |
| 2026-04-26 00:21 | 35.12106 | -103.21838 | 9953 ft | 188 kts | 279° |
| 2026-04-26 00:21 | 35.12361 | -103.23401 | 9952 ft | 188 kts | 279° |
| 2026-04-26 00:21 | 35.12618 | -103.24966 | 9952 ft | 188 kts | 279° |
| 2026-04-26 00:21 | 35.12878 | -103.26560 | 9952 ft | 187 kts | 279° |
| 2026-04-26 00:22 | 35.13137 | -103.28146 | 9952 ft | 187 kts | 279° |
| 2026-04-26 00:22 | 35.13401 | -103.29763 | 9952 ft | 186 kts | 279° |
| 2026-04-26 00:22 | 35.13670 | -103.31414 | 9952 ft | 186 kts | 279° |
| 2026-04-26 00:22 | 35.13950 | -103.33132 | 9952 ft | 186 kts | 279° |
| 2026-04-26 00:23 | 35.14215 | -103.34765 | 9952 ft | 186 kts | 279° |
| 2026-04-26 00:23 | 35.14488 | -103.36446 | 9952 ft | 186 kts | 279° |
| 2026-04-26 00:23 | 35.14754 | -103.38083 | 9952 ft | 186 kts | 279° |
| 2026-04-26 00:23 | 35.15023 | -103.39740 | 9952 ft | 186 kts | 279° |
| 2026-04-26 00:24 | 35.15277 | -103.41305 | 9952 ft | 186 kts | 279° |
| 2026-04-26 00:24 | 35.15529 | -103.42856 | 9951 ft | 186 kts | 279° |
| 2026-04-26 00:24 | 35.15780 | -103.44401 | 9951 ft | 186 kts | 279° |
| 2026-04-26 00:24 | 35.16032 | -103.45952 | 9951 ft | 186 kts | 279° |
| 2026-04-26 00:25 | 35.16283 | -103.47495 | 9951 ft | 186 kts | 279° |
| 2026-04-26 00:25 | 35.16534 | -103.49042 | 9951 ft | 186 kts | 279° |
| 2026-04-26 00:25 | 35.16783 | -103.50588 | 9951 ft | 186 kts | 279° |
| 2026-04-26 00:25 | 35.17034 | -103.52141 | 9951 ft | 186 kts | 279° |
| 2026-04-26 00:26 | 35.17283 | -103.53683 | 9951 ft | 186 kts | 279° |
| 2026-04-26 00:26 | 35.17533 | -103.55234 | 9951 ft | 186 kts | 279° |
| 2026-04-26 00:26 | 35.17783 | -103.56792 | 9951 ft | 186 kts | 279° |
| 2026-04-26 00:26 | 35.18032 | -103.58339 | 9951 ft | 186 kts | 279° |
| 2026-04-26 00:27 | 35.18120 | -103.59892 | 9957 ft | 184 kts | 268° |
| 2026-04-26 00:27 | 35.18109 | -103.61472 | 9950 ft | 185 kts | 268° |
| 2026-04-26 00:27 | 35.18076 | -103.63045 | 9951 ft | 185 kts | 268° |
| 2026-04-26 00:27 | 35.18030 | -103.64616 | 9951 ft | 185 kts | 268° |
| 2026-04-26 00:28 | 35.17978 | -103.66170 | 9954 ft | 185 kts | 267° |
| 2026-04-26 00:28 | 35.17920 | -103.67741 | 9955 ft | 185 kts | 266° |
| 2026-04-26 00:28 | 35.17859 | -103.69320 | 9955 ft | 185 kts | 266° |
| 2026-04-26 00:28 | 35.17796 | -103.70897 | 9955 ft | 185 kts | 266° |
| 2026-04-26 00:29 | 35.17730 | -103.72470 | 9955 ft | 185 kts | 266° |
| 2026-04-26 00:29 | 35.17664 | -103.74043 | 9955 ft | 185 kts | 266° |
| 2026-04-26 00:29 | 35.17597 | -103.75621 | 9957 ft | 185 kts | 266° |
| 2026-04-26 00:29 | 35.17531 | -103.77177 | 9955 ft | 185 kts | 266° |
| 2026-04-26 00:30 | 35.17462 | -103.78745 | 9954 ft | 184 kts | 266° |
| 2026-04-26 00:30 | 35.17394 | -103.80313 | 9954 ft | 184 kts | 266° |
| 2026-04-26 00:30 | 35.17325 | -103.81879 | 9954 ft | 184 kts | 266° |
| 2026-04-26 00:30 | 35.17257 | -103.83418 | 9954 ft | 184 kts | 266° |
| 2026-04-26 00:31 | 35.17187 | -103.84986 | 9954 ft | 184 kts | 266° |
| 2026-04-26 00:31 | 35.17118 | -103.86536 | 9954 ft | 184 kts | 266° |
| 2026-04-26 00:31 | 35.17048 | -103.88109 | 9954 ft | 183 kts | 266° |
| 2026-04-26 00:31 | 35.16978 | -103.89660 | 9954 ft | 183 kts | 266° |
| 2026-04-26 00:32 | 35.16907 | -103.91227 | 9954 ft | 183 kts | 266° |
| 2026-04-26 00:32 | 35.16838 | -103.92776 | 9954 ft | 183 kts | 266° |
| 2026-04-26 00:32 | 35.16627 | -103.95875 | 9943 ft | 184 kts | 253° |
| 2026-04-26 00:33 | 35.16196 | -103.97338 | 9956 ft | 183 kts | 251° |
| 2026-04-26 00:33 | 35.15744 | -103.98813 | 9954 ft | 183 kts | 251° |
| 2026-04-26 00:33 | 35.15288 | -104.00258 | 9953 ft | 183 kts | 250° |
| 2026-04-26 00:33 | 35.14822 | -104.01706 | 9953 ft | 183 kts | 250° |
| 2026-04-26 00:34 | 35.14350 | -104.03157 | 9953 ft | 184 kts | 249° |
| 2026-04-26 00:34 | 35.13872 | -104.04608 | 9953 ft | 184 kts | 249° |
| 2026-04-26 00:34 | 35.13394 | -104.06048 | 9953 ft | 184 kts | 249° |
| 2026-04-26 00:34 | 35.12909 | -104.07503 | 9953 ft | 184 kts | 249° |
| 2026-04-26 00:35 | 35.12428 | -104.08940 | 9953 ft | 184 kts | 249° |
| 2026-04-26 00:35 | 35.11941 | -104.10373 | 9891 ft | 185 kts | 249° |
| 2026-04-26 00:35 | 35.11444 | -104.11826 | 9741 ft | 186 kts | 249° |
| 2026-04-26 00:35 | 35.10943 | -104.13296 | 9587 ft | 186 kts | 249° |
| 2026-04-26 00:36 | 35.10442 | -104.14771 | 9435 ft | 187 kts | 249° |
| 2026-04-26 00:36 | 35.09923 | -104.16306 | 9276 ft | 187 kts | 249° |
| 2026-04-26 00:36 | 35.09407 | -104.17834 | 9119 ft | 187 kts | 249° |
| 2026-04-26 00:36 | 35.08899 | -104.19337 | 8964 ft | 188 kts | 249° |
| 2026-04-26 00:37 | 35.08386 | -104.20856 | 8807 ft | 188 kts | 249° |
| 2026-04-26 00:37 | 35.07880 | -104.22351 | 8652 ft | 188 kts | 249° |
| 2026-04-26 00:37 | 35.07373 | -104.23849 | 8498 ft | 188 kts | 249° |
| 2026-04-26 00:37 | 35.06865 | -104.25350 | 8342 ft | 188 kts | 249° |
| 2026-04-26 00:38 | 35.06359 | -104.26856 | 8186 ft | 189 kts | 248° |
| 2026-04-26 00:38 | 35.05852 | -104.28354 | 8032 ft | 189 kts | 248° |
| 2026-04-26 00:38 | 35.05346 | -104.29840 | 7880 ft | 189 kts | 248° |
| 2026-04-26 00:38 | 35.04836 | -104.31342 | 7725 ft | 189 kts | 248° |
| 2026-04-26 00:39 | 35.04323 | -104.32851 | 7570 ft | 190 kts | 248° |
| 2026-04-26 00:39 | 35.03823 | -104.34325 | 7418 ft | 190 kts | 248° |
| 2026-04-26 00:39 | 35.03312 | -104.35830 | 7263 ft | 190 kts | 248° |
| 2026-04-26 00:39 | 35.02810 | -104.37310 | 7111 ft | 190 kts | 248° |
| 2026-04-26 00:40 | 35.02354 | -104.38824 | 6956 ft | 190 kts | 249° |
| 2026-04-26 00:40 | 35.01813 | -104.40295 | 6803 ft | 190 kts | 248° |
| 2026-04-26 00:40 | 35.01295 | -104.41758 | 6652 ft | 190 kts | 248° |
| 2026-04-26 00:40 | 35.00782 | -104.43243 | 6499 ft | 190 kts | 248° |
| 2026-04-26 00:41 | 35.00270 | -104.44742 | 6344 ft | 190 kts | 248° |
| 2026-04-26 00:41 | 34.99763 | -104.46230 | 6190 ft | 190 kts | 248° |
| 2026-04-26 00:41 | 34.99242 | -104.47760 | 6035 ft | 190 kts | 248° |
| 2026-04-26 00:41 | 34.98718 | -104.49300 | 5884 ft | 190 kts | 248° |
| 2026-04-26 00:42 | 34.98201 | -104.50816 | 5805 ft | 182 kts | 248° |
| 2026-04-26 00:42 | 34.97694 | -104.52253 | 5795 ft | 173 kts | 250° |
| 2026-04-26 00:42 | 34.97255 | -104.53601 | 5796 ft | 166 kts | 246° |
| 2026-04-26 00:42 | 34.96812 | -104.54887 | 5796 ft | 162 kts | 246° |
| 2026-04-26 00:43 | 34.96385 | -104.56150 | 5792 ft | 160 kts | 248° |
| 2026-04-26 00:43 | 34.95956 | -104.57394 | 5796 ft | 158 kts | 248° |
| 2026-04-26 00:43 | 34.95533 | -104.58627 | 5795 ft | 157 kts | 248° |
| 2026-04-26 00:43 | 34.95116 | -104.59845 | 5799 ft | 156 kts | 248° |
| 2026-04-26 00:44 | 34.94786 | -104.61097 | 5812 ft | 155 kts | 257° |
| 2026-04-26 00:44 | 34.94638 | -104.62398 | 5852 ft | 153 kts | 265° |
| 2026-04-26 00:44 | 34.94559 | -104.63791 | 5852 ft | 154 kts | 261° |
| 2026-04-26 00:44 | 34.94008 | -104.65029 | 5955 ft | 150 kts | 219° |
| 2026-04-26 00:45 | 34.92892 | -104.65498 | 5884 ft | 161 kts | 193° |
| 2026-04-26 00:45 | 34.91756 | -104.65671 | 5914 ft | 163 kts | 178° |
| 2026-04-26 00:45 | 34.90755 | -104.64860 | 5858 ft | 177 kts | 122° |
| 2026-04-26 00:45 | 34.90525 | -104.63255 | 5947 ft | 167 kts | 92° |
| 2026-04-26 00:46 | 34.90572 | -104.61742 | 5973 ft | 157 kts | 85° |
| 2026-04-26 00:46 | 34.90897 | -104.60411 | 5906 ft | 150 kts | 46° |
| 2026-04-26 00:46 | 34.91806 | -104.59902 | 5724 ft | 133 kts | 357° |
| 2026-04-26 00:46 | 34.92663 | -104.59898 | 5725 ft | 116 kts | 345° |
| 2026-04-26 00:47 | 34.93446 | -104.60056 | 5632 ft | 114 kts | 335° |
| 2026-04-26 00:47 | 34.94018 | -104.60586 | 5434 ft | 107 kts | 279° |
| 2026-04-26 00:47 | 34.93975 | -104.61491 | 5207 ft | 106 kts | 263° |
| 2026-04-26 00:47 | 34.93958 | -104.62341 | 5068 ft | 96 kts | 265° |
| 2026-04-26 00:48 | 34.93944 | -104.63129 | 4908 ft | 92 kts | 265° |
| 2026-04-26 00:48 | 34.93942 | -104.63865 | 4782 ft | 76 kts | 263° |
| 2026-04-26 00:48 | 34.93929 | -104.64331 | 4768 ft | 25 kts | 269° |
| 2026-04-26 00:48 | 34.93931 | -104.64388 | 4767 ft | 0 kts | 283° |
| 2026-04-26 00:49 | 34.93933 | -104.64397 | 4767 ft | 2 kts | 283° |
| 2026-04-26 00:49 | 34.93928 | -104.64411 | 4767 ft | 2 kts | 147° |
| 2026-04-26 00:49 | 34.93930 | -104.64375 | 4767 ft | 3 kts | 81° |
| 2026-04-26 00:49 | 34.93933 | -104.64337 | 4768 ft | 5 kts | 87° |
| 2026-04-26 00:50 | 34.93935 | -104.64269 | 4769 ft | 8 kts | 88° |
| 2026-04-26 00:50 | 34.93967 | -104.64220 | 4770 ft | 8 kts | 358° |
| 2026-04-26 00:50 | 34.93990 | -104.64222 | 4770 ft | 0 kts | 355° |
| 2026-04-26 00:50 | 34.94003 | -104.64208 | 4770 ft | 3 kts | 49° |
| 2026-04-26 00:51 | 34.94020 | -104.64197 | 4770 ft | 4 kts | 119° |
| 2026-04-26 00:51 | 34.94019 | -104.64153 | 4771 ft | 6 kts | 104° |
| 2026-04-26 00:51 | 34.94030 | -104.64143 | 4770 ft | 1 kts | 254° |
| 2026-04-26 00:51 | 34.94030 | -104.64163 | 4770 ft | 2 kts | 268° |
| 2026-04-26 00:52 | 34.94026 | -104.64167 | 4770 ft | 0 kts | 186° |
| 2026-04-26 00:52 | 34.94025 | -104.64167 | 4770 ft | 0 kts | 173° |